sensor_id;sensor_type;location;lat;lon;timestamp;pressure;altitude;pressure_sealevel;temperature;humidity
41312;BME280;27061;41.648;24.568;2024-02-26T00:00:02;85462.50;;;7.45;69.93
41312;BME280;27061;41.648;24.568;2024-02-26T00:02:31;85455.63;;;7.42;69.87
41312;BME280;27061;41.648;24.568;2024-02-26T00:05:05;85422.22;;;7.03;69.55
41312;BME280;27061;41.648;24.568;2024-02-26T00:07:33;85487.19;;;7.57;69.93
41312;BME280;27061;41.648;24.568;2024-02-26T00:10:00;85378.50;;;6.66;69.58
41312;BME280;27061;41.648;24.568;2024-02-26T00:12:30;85446.25;;;7.12;69.79
41312;BME280;27061;41.648;24.568;2024-02-26T00:14:58;85306.13;;;5.92;69.68
41312;BME280;27061;41.648;24.568;2024-02-26T00:17:25;85268.44;;;5.70;69.92
41312;BME280;27061;41.648;24.568;2024-02-26T00:19:53;85205.63;;;5.05;70.41
41312;BME280;27061;41.648;24.568;2024-02-26T00:22:20;85413.50;;;6.70;70.27
41312;BME280;27061;41.648;24.568;2024-02-26T00:24:49;85316.25;;;6.20;69.73
41312;BME280;27061;41.648;24.568;2024-02-26T00:27:16;85329.09;;;6.50;67.82
41312;BME280;27061;41.648;24.568;2024-02-26T00:29:43;85319.66;;;6.22;68.99
41312;BME280;27061;41.648;24.568;2024-02-26T00:32:11;85302.56;;;6.06;70.09
41312;BME280;27061;41.648;24.568;2024-02-26T00:34:38;85284.72;;;6.05;68.10
41312;BME280;27061;41.648;24.568;2024-02-26T00:37:06;85426.97;;;7.14;67.99
41312;BME280;27061;41.648;24.568;2024-02-26T00:39:33;85433.75;;;7.23;67.80
41312;BME280;27061;41.648;24.568;2024-02-26T00:42:00;85409.31;;;6.83;70.09
41312;BME280;27061;41.648;24.568;2024-02-26T00:44:28;85443.44;;;7.18;69.33
41312;BME280;27061;41.648;24.568;2024-02-26T00:46:55;85407.84;;;6.92;69.49
41312;BME280;27061;41.648;24.568;2024-02-26T00:49:22;85483.84;;;7.46;69.54
41312;BME280;27061;41.648;24.568;2024-02-26T00:51:50;85474.19;;;7.45;69.87
41312;BME280;27061;41.648;24.568;2024-02-26T00:54:17;85400.13;;;7.13;68.01
41312;BME280;27061;41.648;24.568;2024-02-26T00:56:45;85308.53;;;6.39;67.46
41312;BME280;27061;41.648;24.568;2024-02-26T00:59:12;85476.88;;;7.55;67.82
41312;BME280;27061;41.648;24.568;2024-02-26T01:01:39;85405.75;;;6.98;68.31
41312;BME280;27061;41.648;24.568;2024-02-26T01:04:07;85426.94;;;7.18;68.03
41312;BME280;27061;41.648;24.568;2024-02-26T01:06:34;85415.88;;;7.22;65.16
41312;BME280;27061;41.648;24.568;2024-02-26T01:09:02;85253.25;;;5.90;65.66
41312;BME280;27061;41.648;24.568;2024-02-26T01:11:30;85392.03;;;6.94;66.40
41312;BME280;27061;41.648;24.568;2024-02-26T01:13:57;85267.59;;;5.98;67.70
41312;BME280;27061;41.648;24.568;2024-02-26T01:16:25;85283.38;;;6.04;69.45
41312;BME280;27061;41.648;24.568;2024-02-26T01:18:55;85231.31;;;5.79;70.54
41312;BME280;27061;41.648;24.568;2024-02-26T01:21:23;85406.38;;;7.07;71.34
41312;BME280;27061;41.648;24.568;2024-02-26T01:23:51;85353.03;;;6.66;70.01
41312;BME280;27061;41.648;24.568;2024-02-26T01:26:18;85215.50;;;5.82;68.61
41312;BME280;27061;41.648;24.568;2024-02-26T01:28:46;85259.31;;;6.04;69.58
41312;BME280;27061;41.648;24.568;2024-02-26T01:31:13;85314.03;;;6.43;71.21
41312;BME280;27061;41.648;24.568;2024-02-26T01:33:41;85352.97;;;6.74;71.35
41312;BME280;27061;41.648;24.568;2024-02-26T01:36:08;85399.41;;;7.18;70.56
41312;BME280;27061;41.648;24.568;2024-02-26T01:38:36;85381.63;;;7.05;69.45
41312;BME280;27061;41.648;24.568;2024-02-26T01:41:04;85450.03;;;7.54;69.89
41312;BME280;27061;41.648;24.568;2024-02-26T01:43:31;85281.22;;;6.16;70.01
41312;BME280;27061;41.648;24.568;2024-02-26T01:45:59;85326.19;;;6.68;70.67
41312;BME280;27061;41.648;24.568;2024-02-26T01:48:27;85439.19;;;7.31;70.78
41312;BME280;27061;41.648;24.568;2024-02-26T01:50:55;85442.78;;;7.14;72.67
41312;BME280;27061;41.648;24.568;2024-02-26T01:53:23;85381.84;;;6.77;72.63
41312;BME280;27061;41.648;24.568;2024-02-26T01:55:51;85431.16;;;7.07;72.19
41312;BME280;27061;41.648;24.568;2024-02-26T01:58:19;85432.34;;;7.30;72.06
41312;BME280;27061;41.648;24.568;2024-02-26T02:00:47;85337.88;;;6.69;71.70
41312;BME280;27061;41.648;24.568;2024-02-26T02:03:15;85359.16;;;6.76;71.54
41312;BME280;27061;41.648;24.568;2024-02-26T02:05:44;85365.88;;;6.95;71.02
41312;BME280;27061;41.648;24.568;2024-02-26T02:08:12;85398.16;;;7.01;71.38
41312;BME280;27061;41.648;24.568;2024-02-26T02:10:50;85328.31;;;6.61;71.60
41312;BME280;27061;41.648;24.568;2024-02-26T02:13:18;85398.09;;;7.09;71.16
41312;BME280;27061;41.648;24.568;2024-02-26T02:15:46;85344.72;;;6.74;71.31
41312;BME280;27061;41.648;24.568;2024-02-26T02:18:17;85390.50;;;7.14;71.56
41312;BME280;27061;41.648;24.568;2024-02-26T02:20:48;85355.47;;;7.06;70.24
41312;BME280;27061;41.648;24.568;2024-02-26T02:23:16;85280.34;;;6.44;70.11
41312;BME280;27061;41.648;24.568;2024-02-26T02:25:43;85230.56;;;5.89;70.89
41312;BME280;27061;41.648;24.568;2024-02-26T02:28:11;85255.25;;;5.97;71.71
41312;BME280;27061;41.648;24.568;2024-02-26T02:30:39;85216.22;;;5.74;71.89
41312;BME280;27061;41.648;24.568;2024-02-26T02:33:07;85211.34;;;5.91;72.16
41312;BME280;27061;41.648;24.568;2024-02-26T02:35:35;85263.88;;;6.38;71.71
41312;BME280;27061;41.648;24.568;2024-02-26T02:38:02;85291.28;;;6.50;70.75
41312;BME280;27061;41.648;24.568;2024-02-26T02:40:30;85400.03;;;7.25;72.28
41312;BME280;27061;41.648;24.568;2024-02-26T02:42:57;85205.22;;;5.78;72.14
41312;BME280;27061;41.648;24.568;2024-02-26T02:45:25;85303.66;;;6.49;73.03
41312;BME280;27061;41.648;24.568;2024-02-26T02:47:53;85182.03;;;5.51;73.07
41312;BME280;27061;41.648;24.568;2024-02-26T02:50:23;85220.25;;;5.92;73.04
41312;BME280;27061;41.648;24.568;2024-02-26T02:52:51;85205.16;;;5.86;72.91
41312;BME280;27061;41.648;24.568;2024-02-26T02:55:18;85363.03;;;7.04;73.06
41312;BME280;27061;41.648;24.568;2024-02-26T02:57:45;85254.47;;;6.11;73.00
41312;BME280;27061;41.648;24.568;2024-02-26T03:00:13;85406.28;;;7.19;73.33
41312;BME280;27061;41.648;24.568;2024-02-26T03:02:41;85135.56;;;5.23;72.88
41312;BME280;27061;41.648;24.568;2024-02-26T03:05:08;85053.56;;;4.74;72.54
41312;BME280;27061;41.648;24.568;2024-02-26T03:07:38;85367.31;;;6.88;72.79
41312;BME280;27061;41.648;24.568;2024-02-26T03:10:05;85319.97;;;6.72;70.20
41312;BME280;27061;41.648;24.568;2024-02-26T03:12:33;85262.66;;;6.15;70.70
41312;BME280;27061;41.648;24.568;2024-02-26T03:15:02;85365.00;;;7.15;71.69
41312;BME280;27061;41.648;24.568;2024-02-26T03:17:32;85356.97;;;6.91;71.98
41312;BME280;27061;41.648;24.568;2024-02-26T03:20:00;85399.41;;;7.18;72.70
41312;BME280;27061;41.648;24.568;2024-02-26T03:22:27;85371.38;;;6.95;72.96
41312;BME280;27061;41.648;24.568;2024-02-26T03:24:55;85335.88;;;6.63;73.27
41312;BME280;27061;41.648;24.568;2024-02-26T03:27:22;85401.41;;;7.24;72.68
41312;BME280;27061;41.648;24.568;2024-02-26T03:29:50;85395.91;;;7.24;72.48
41312;BME280;27061;41.648;24.568;2024-02-26T03:32:18;85324.09;;;6.73;69.71
41312;BME280;27061;41.648;24.568;2024-02-26T03:34:45;85395.31;;;7.13;71.45
41312;BME280;27061;41.648;24.568;2024-02-26T03:37:13;85246.25;;;6.05;72.14
41312;BME280;27061;41.648;24.568;2024-02-26T03:39:42;85377.44;;;7.10;72.42
41312;BME280;27061;41.648;24.568;2024-02-26T03:42:09;85346.03;;;6.81;72.34
41312;BME280;27061;41.648;24.568;2024-02-26T03:44:36;85251.75;;;6.05;72.39
41312;BME280;27061;41.648;24.568;2024-02-26T03:47:04;85395.31;;;7.11;72.29
41312;BME280;27061;41.648;24.568;2024-02-26T03:49:31;85293.44;;;6.36;71.90
41312;BME280;27061;41.648;24.568;2024-02-26T03:51:58;85380.84;;;7.15;71.21
41312;BME280;27061;41.648;24.568;2024-02-26T03:54:25;85406.22;;;7.23;71.61
41312;BME280;27061;41.648;24.568;2024-02-26T03:56:53;85404.78;;;7.32;71.17
41312;BME280;27061;41.648;24.568;2024-02-26T03:59:20;85240.88;;;5.93;70.70
41312;BME280;27061;41.648;24.568;2024-02-26T04:01:48;85367.97;;;6.91;71.33
41312;BME280;27061;41.648;24.568;2024-02-26T04:04:16;85167.59;;;5.59;70.72
41312;BME280;27061;41.648;24.568;2024-02-26T04:06:47;85350.13;;;6.86;71.63
41312;BME280;27061;41.648;24.568;2024-02-26T04:09:14;85318.69;;;6.63;72.09
41312;BME280;27061;41.648;24.568;2024-02-26T04:11:42;85381.00;;;6.96;72.22
41312;BME280;27061;41.648;24.568;2024-02-26T04:14:12;85339.84;;;6.82;72.75
41312;BME280;27061;41.648;24.568;2024-02-26T04:16:40;85225.81;;;5.81;72.34
41312;BME280;27061;41.648;24.568;2024-02-26T04:19:07;85391.19;;;7.12;72.72
41312;BME280;27061;41.648;24.568;2024-02-26T04:21:35;85394.03;;;7.02;72.70
41312;BME280;27061;41.648;24.568;2024-02-26T04:24:02;85395.44;;;6.99;72.71
41312;BME280;27061;41.648;24.568;2024-02-26T04:26:30;85396.56;;;7.28;72.23
41312;BME280;27061;41.648;24.568;2024-02-26T04:28:58;85303.75;;;6.37;71.20
41312;BME280;27061;41.648;24.568;2024-02-26T04:31:25;85139.59;;;5.36;71.22
41312;BME280;27061;41.648;24.568;2024-02-26T04:33:53;85370.00;;;6.96;71.73
41312;BME280;27061;41.648;24.568;2024-02-26T04:36:23;85346.81;;;6.71;72.04
41312;BME280;27061;41.648;24.568;2024-02-26T04:38:52;85370.63;;;7.03;71.56
41312;BME280;27061;41.648;24.568;2024-02-26T04:41:22;85172.44;;;5.52;71.89
41312;BME280;27061;41.648;24.568;2024-02-26T04:43:50;85338.41;;;6.89;70.94
41312;BME280;27061;41.648;24.568;2024-02-26T04:46:17;85276.41;;;6.15;70.69
41312;BME280;27061;41.648;24.568;2024-02-26T04:48:45;85400.78;;;7.19;71.28
41312;BME280;27061;41.648;24.568;2024-02-26T04:51:14;85363.75;;;7.00;71.55
41312;BME280;27061;41.648;24.568;2024-02-26T04:53:41;85339.06;;;6.90;70.74
41312;BME280;27061;41.648;24.568;2024-02-26T04:56:09;85220.28;;;5.90;70.84
41312;BME280;27061;41.648;24.568;2024-02-26T04:58:36;85361.75;;;6.94;71.00
41312;BME280;27061;41.648;24.568;2024-02-26T05:01:04;85307.16;;;6.42;71.71
41312;BME280;27061;41.648;24.568;2024-02-26T05:03:31;85394.44;;;7.31;70.22
41312;BME280;27061;41.648;24.568;2024-02-26T05:06:05;85330.88;;;6.88;70.04
41312;BME280;27061;41.648;24.568;2024-02-26T05:08:33;85333.69;;;6.78;68.91
41312;BME280;27061;41.648;24.568;2024-02-26T05:11:06;85318.69;;;6.63;69.14
41312;BME280;27061;41.648;24.568;2024-02-26T05:13:33;85362.00;;;6.64;69.27
41312;BME280;27061;41.648;24.568;2024-02-26T05:16:01;85292.81;;;6.29;67.95
41312;BME280;27061;41.648;24.568;2024-02-26T05:18:28;85372.16;;;6.84;68.62
41312;BME280;27061;41.648;24.568;2024-02-26T05:20:56;85194.41;;;5.50;65.25
41312;BME280;27061;41.648;24.568;2024-02-26T05:23:27;85255.94;;;5.96;66.00
41312;BME280;27061;41.648;24.568;2024-02-26T05:25:55;85224.38;;;5.84;64.32
41312;BME280;27061;41.648;24.568;2024-02-26T05:28:26;85404.81;;;7.28;63.24
41312;BME280;27061;41.648;24.568;2024-02-26T05:30:54;85361.09;;;6.90;62.72
41312;BME280;27061;41.648;24.568;2024-02-26T05:33:22;85404.75;;;7.34;62.00
41312;BME280;27061;41.648;24.568;2024-02-26T05:35:50;85328.06;;;6.90;59.53
41312;BME280;27061;41.648;24.568;2024-02-26T05:38:18;85175.84;;;5.55;57.26
41312;BME280;27061;41.648;24.568;2024-02-26T05:40:48;85250.44;;;5.96;65.46
41312;BME280;27061;41.648;24.568;2024-02-26T05:43:19;85337.91;;;6.67;68.17
41312;BME280;27061;41.648;24.568;2024-02-26T05:45:46;85415.94;;;7.14;69.12
41312;BME280;27061;41.648;24.568;2024-02-26T05:48:14;85340.69;;;6.60;69.33
41312;BME280;27061;41.648;24.568;2024-02-26T05:50:41;85286.06;;;6.14;69.42
41312;BME280;27061;41.648;24.568;2024-02-26T05:53:09;85383.19;;;6.80;69.55
41312;BME280;27061;41.648;24.568;2024-02-26T05:55:36;85336.56;;;6.64;69.55
41312;BME280;27061;41.648;24.568;2024-02-26T05:58:04;85389.25;;;6.98;69.72
41312;BME280;27061;41.648;24.568;2024-02-26T06:00:32;85418.72;;;7.10;69.57
41312;BME280;27061;41.648;24.568;2024-02-26T06:03:01;85348.84;;;6.73;69.32
41312;BME280;27061;41.648;24.568;2024-02-26T06:05:30;85402.16;;;7.16;69.23
41312;BME280;27061;41.648;24.568;2024-02-26T06:07:58;85380.41;;;6.82;70.17
41312;BME280;27061;41.648;24.568;2024-02-26T06:10:25;85407.69;;;7.12;70.91
41312;BME280;27061;41.648;24.568;2024-02-26T06:12:52;85419.97;;;7.29;71.16
41312;BME280;27061;41.648;24.568;2024-02-26T06:15:20;85410.34;;;7.26;71.31
41312;BME280;27061;41.648;24.568;2024-02-26T06:17:47;85264.78;;;6.10;71.56
41312;BME280;27061;41.648;24.568;2024-02-26T06:20:15;85379.50;;;7.12;71.42
41312;BME280;27061;41.648;24.568;2024-02-26T06:22:42;85395.19;;;7.27;71.44
41312;BME280;27061;41.648;24.568;2024-02-26T06:25:10;85388.31;;;7.26;70.40
41312;BME280;27061;41.648;24.568;2024-02-26T06:27:37;85436.25;;;7.56;70.64
41312;BME280;27061;41.648;24.568;2024-02-26T06:30:05;85437.59;;;7.59;70.85
41312;BME280;27061;41.648;24.568;2024-02-26T06:32:33;85354.09;;;7.03;70.18
41312;BME280;27061;41.648;24.568;2024-02-26T06:35:00;85396.59;;;7.22;70.37
41312;BME280;27061;41.648;24.568;2024-02-26T06:37:31;85385.63;;;7.20;69.23
41312;BME280;27061;41.648;24.568;2024-02-26T06:39:59;85289.94;;;6.45;69.37
41312;BME280;27061;41.648;24.568;2024-02-26T06:42:26;85445.69;;;7.75;68.61
41312;BME280;27061;41.648;24.568;2024-02-26T06:44:53;85439.59;;;7.64;69.29
41312;BME280;27061;41.648;24.568;2024-02-26T06:47:21;85366.47;;;7.08;69.27
41312;BME280;27061;41.648;24.568;2024-02-26T06:49:48;85336.25;;;7.00;67.86
41312;BME280;27061;41.648;24.568;2024-02-26T06:52:16;85445.72;;;7.73;67.85
41312;BME280;27061;41.648;24.568;2024-02-26T06:54:43;85318.59;;;6.73;67.73
41312;BME280;27061;41.648;24.568;2024-02-26T06:57:13;85397.84;;;7.38;68.04
41312;BME280;27061;41.648;24.568;2024-02-26T06:59:41;85292.63;;;6.51;68.22
41312;BME280;27061;41.648;24.568;2024-02-26T07:02:13;85393.75;;;7.34;68.12
41312;BME280;27061;41.648;24.568;2024-02-26T07:04:41;85371.13;;;7.26;68.46
41312;BME280;27061;41.648;24.568;2024-02-26T07:07:09;85291.19;;;6.58;67.97
41312;BME280;27061;41.648;24.568;2024-02-26T07:09:37;85336.25;;;7.00;68.78
41312;BME280;27061;41.648;24.568;2024-02-26T07:12:05;85403.16;;;7.60;68.61
41312;BME280;27061;41.648;24.568;2024-02-26T07:14:32;85459.94;;;8.00;68.11
41312;BME280;27061;41.648;24.568;2024-02-26T07:17:00;85420.94;;;7.73;68.76
41312;BME280;27061;41.648;24.568;2024-02-26T07:19:27;85431.72;;;7.95;69.09
41312;BME280;27061;41.648;24.568;2024-02-26T07:21:55;85465.25;;;8.16;68.57
41312;BME280;27061;41.648;24.568;2024-02-26T07:24:22;85420.91;;;7.75;68.71
41312;BME280;27061;41.648;24.568;2024-02-26T07:26:50;85444.72;;;8.05;69.43
41312;BME280;27061;41.648;24.568;2024-02-26T07:29:20;85286.78;;;6.92;69.22
41312;BME280;27061;41.648;24.568;2024-02-26T07:31:48;85381.00;;;7.72;66.74
41312;BME280;27061;41.648;24.568;2024-02-26T07:34:15;85359.13;;;7.54;67.67
41312;BME280;27061;41.648;24.568;2024-02-26T07:36:43;85434.41;;;8.01;68.36
41312;BME280;27061;41.648;24.568;2024-02-26T07:39:10;85352.25;;;7.53;67.64
41312;BME280;27061;41.648;24.568;2024-02-26T07:41:38;85357.00;;;7.60;67.66
41312;BME280;27061;41.648;24.568;2024-02-26T07:44:14;85330.97;;;7.49;68.10
41312;BME280;27061;41.648;24.568;2024-02-26T07:46:41;85229.16;;;6.78;69.13
41312;BME280;27061;41.648;24.568;2024-02-26T07:49:09;85398.59;;;7.99;67.68
41312;BME280;27061;41.648;24.568;2024-02-26T07:51:36;85331.50;;;7.62;69.46
41312;BME280;27061;41.648;24.568;2024-02-26T07:54:04;85472.38;;;8.58;68.30
41312;BME280;27061;41.648;24.568;2024-02-26T07:56:31;85264.56;;;7.14;68.75
41312;BME280;27061;41.648;24.568;2024-02-26T07:58:59;85283.69;;;7.28;68.80
41312;BME280;27061;41.648;24.568;2024-02-26T08:01:26;85435.84;;;8.58;69.52
41312;BME280;27061;41.648;24.568;2024-02-26T08:03:54;85424.41;;;8.35;67.36
41312;BME280;27061;41.648;24.568;2024-02-26T08:06:22;85432.47;;;8.53;65.65
41312;BME280;27061;41.648;24.568;2024-02-26T08:08:49;85347.88;;;7.76;66.84
41312;BME280;27061;41.648;24.568;2024-02-26T08:11:17;85448.91;;;8.61;66.43
41312;BME280;27061;41.648;24.568;2024-02-26T08:13:44;85382.59;;;8.12;64.67
41312;BME280;27061;41.648;24.568;2024-02-26T08:16:12;85425.59;;;8.48;64.28
41312;BME280;27061;41.648;24.568;2024-02-26T08:18:40;85383.88;;;8.21;63.59
41312;BME280;27061;41.648;24.568;2024-02-26T08:21:07;85318.88;;;7.81;64.43
41312;BME280;27061;41.648;24.568;2024-02-26T08:23:38;85372.19;;;8.17;64.47
41312;BME280;27061;41.648;24.568;2024-02-26T08:26:05;85465.16;;;8.86;64.74
41312;BME280;27061;41.648;24.568;2024-02-26T08:28:34;85363.19;;;8.22;65.19
41312;BME280;27061;41.648;24.568;2024-02-26T08:31:04;85411.78;;;8.50;65.93
41312;BME280;27061;41.648;24.568;2024-02-26T08:33:32;85438.44;;;8.70;64.95
41312;BME280;27061;41.648;24.568;2024-02-26T08:36:06;85340.59;;;8.09;65.41
41312;BME280;27061;41.648;24.568;2024-02-26T08:38:33;85465.13;;;8.90;62.59
41312;BME280;27061;41.648;24.568;2024-02-26T08:41:02;85457.47;;;8.92;62.65
41312;BME280;27061;41.648;24.568;2024-02-26T08:43:33;85434.28;;;8.73;64.92
41312;BME280;27061;41.648;24.568;2024-02-26T08:46:03;85402.19;;;8.47;63.37
41312;BME280;27061;41.648;24.568;2024-02-26T08:48:30;85366.78;;;8.08;62.61
41312;BME280;27061;41.648;24.568;2024-02-26T08:50:58;85432.25;;;8.69;63.43
41312;BME280;27061;41.648;24.568;2024-02-26T08:53:25;85398.13;;;8.40;64.54
41312;BME280;27061;41.648;24.568;2024-02-26T08:56:07;85391.13;;;8.49;61.78
41312;BME280;27061;41.648;24.568;2024-02-26T08:58:35;85451.31;;;8.90;62.43
41312;BME280;27061;41.648;24.568;2024-02-26T09:01:03;85428.72;;;8.77;63.69
41312;BME280;27061;41.648;24.568;2024-02-26T09:03:30;85415.72;;;8.67;65.46
41312;BME280;27061;41.648;24.568;2024-02-26T09:05:58;85456.69;;;9.00;60.99
41312;BME280;27061;41.648;24.568;2024-02-26T09:08:25;85431.75;;;9.06;61.29
41312;BME280;27061;41.648;24.568;2024-02-26T09:10:53;85427.31;;;8.78;60.35
41312;BME280;27061;41.648;24.568;2024-02-26T09:13:20;85289.94;;;7.82;63.61
41312;BME280;27061;41.648;24.568;2024-02-26T09:15:48;85401.84;;;8.71;64.04
41312;BME280;27061;41.648;24.568;2024-02-26T09:18:15;85442.84;;;9.02;64.50
41312;BME280;27061;41.648;24.568;2024-02-26T09:20:43;85229.94;;;7.31;61.60
41312;BME280;27061;41.648;24.568;2024-02-26T09:23:11;85399.75;;;8.74;61.82
41312;BME280;27061;41.648;24.568;2024-02-26T09:25:38;85476.75;;;9.43;62.16
41312;BME280;27061;41.648;24.568;2024-02-26T09:28:08;85327.88;;;8.35;61.60
41312;BME280;27061;41.648;24.568;2024-02-26T09:30:36;85465.69;;;9.45;59.59
41312;BME280;27061;41.648;24.568;2024-02-26T09:33:04;85484.97;;;9.49;60.27
41312;BME280;27061;41.648;24.568;2024-02-26T09:35:32;85459.56;;;9.41;60.18
41312;BME280;27061;41.648;24.568;2024-02-26T09:38:02;85387.66;;;9.00;60.63
41312;BME280;27061;41.648;24.568;2024-02-26T09:40:31;85264.75;;;8.11;60.58
41312;BME280;27061;41.648;24.568;2024-02-26T09:43:04;85470.69;;;9.80;63.71
41312;BME280;27061;41.648;24.568;2024-02-26T09:45:33;85376.34;;;9.18;59.94
41312;BME280;27061;41.648;24.568;2024-02-26T09:48:02;85369.75;;;8.97;61.35
41312;BME280;27061;41.648;24.568;2024-02-26T09:50:32;85357.75;;;9.14;62.53
41312;BME280;27061;41.648;24.568;2024-02-26T09:52:59;85292.84;;;8.72;62.93
41312;BME280;27061;41.648;24.568;2024-02-26T09:55:30;85433.53;;;9.69;62.45
41312;BME280;27061;41.648;24.568;2024-02-26T09:57:57;85264.13;;;8.57;63.61
41312;BME280;27061;41.648;24.568;2024-02-26T10:00:27;85431.03;;;9.96;59.53
41312;BME280;27061;41.648;24.568;2024-02-26T10:03:04;85448.63;;;10.17;57.59
41312;BME280;27061;41.648;24.568;2024-02-26T10:05:35;85299.38;;;8.96;62.44
41312;BME280;27061;41.648;24.568;2024-02-26T10:08:04;85443.94;;;10.07;61.34
41312;BME280;27061;41.648;24.568;2024-02-26T10:10:32;85282.97;;;8.86;59.35
41312;BME280;27061;41.648;24.568;2024-02-26T10:13:00;85366.16;;;9.49;60.57
41312;BME280;27061;41.648;24.568;2024-02-26T10:15:29;85419.66;;;10.12;62.09
41312;BME280;27061;41.648;24.568;2024-02-26T10:17:56;85306.44;;;9.28;59.75
41312;BME280;27061;41.648;24.568;2024-02-26T10:20:26;85271.75;;;8.98;59.10
41312;BME280;27061;41.648;24.568;2024-02-26T10:22:55;85328.81;;;9.52;60.95
41312;BME280;27061;41.648;24.568;2024-02-26T10:25:25;85364.19;;;9.83;61.22
41312;BME280;27061;41.648;24.568;2024-02-26T10:27:53;85390.06;;;10.04;59.52
41312;BME280;27061;41.648;24.568;2024-02-26T10:30:22;85233.25;;;8.90;60.09
41312;BME280;27061;41.648;24.568;2024-02-26T10:32:50;85266.72;;;9.08;59.51
41312;BME280;27061;41.648;24.568;2024-02-26T10:35:18;85380.41;;;10.03;58.66
41312;BME280;27061;41.648;24.568;2024-02-26T10:37:50;85280.88;;;9.29;58.65
41312;BME280;27061;41.648;24.568;2024-02-26T10:40:18;85291.59;;;9.47;59.71
41312;BME280;27061;41.648;24.568;2024-02-26T10:42:46;85391.13;;;10.23;56.99
41312;BME280;27061;41.648;24.568;2024-02-26T10:45:18;85293.38;;;9.63;58.25
41312;BME280;27061;41.648;24.568;2024-02-26T10:47:48;85377.22;;;10.27;58.19
41312;BME280;27061;41.648;24.568;2024-02-26T10:50:16;85333.44;;;10.01;57.94
41312;BME280;27061;41.648;24.568;2024-02-26T10:52:45;85399.94;;;10.67;56.20
41312;BME280;27061;41.648;24.568;2024-02-26T10:55:16;85295.06;;;9.85;58.98
41312;BME280;27061;41.648;24.568;2024-02-26T10:57:51;85397.78;;;10.37;57.20
41312;BME280;27061;41.648;24.568;2024-02-26T11:00:20;85218.13;;;9.24;57.08
41312;BME280;27061;41.648;24.568;2024-02-26T11:02:55;85341.53;;;10.11;58.90
41312;BME280;27061;41.648;24.568;2024-02-26T11:05:27;85366.06;;;10.32;56.51
41312;BME280;27061;41.648;24.568;2024-02-26T11:07:56;85356.31;;;10.35;51.54
41312;BME280;27061;41.648;24.568;2024-02-26T11:10:25;85360.31;;;10.42;55.92
41312;BME280;27061;41.648;24.568;2024-02-26T11:12:56;85244.59;;;9.49;56.78
41312;BME280;27061;41.648;24.568;2024-02-26T11:15:28;85209.91;;;9.22;55.28
41312;BME280;27061;41.648;24.568;2024-02-26T11:17:59;85356.88;;;10.41;56.12
41312;BME280;27061;41.648;24.568;2024-02-26T11:20:31;85409.53;;;10.72;53.57
41312;BME280;27061;41.648;24.568;2024-02-26T11:23:01;85387.69;;;10.58;54.33
41312;BME280;27061;41.648;24.568;2024-02-26T11:25:28;85124.75;;;8.58;54.42
41312;BME280;27061;41.648;24.568;2024-02-26T11:27:59;85076.91;;;8.35;54.18
41312;BME280;27061;41.648;24.568;2024-02-26T11:30:32;85077.28;;;8.52;53.09
41312;BME280;27061;41.648;24.568;2024-02-26T11:33:08;85202.63;;;9.41;55.14
41312;BME280;27061;41.648;24.568;2024-02-26T11:35:37;85356.41;;;10.31;55.65
41312;BME280;27061;41.648;24.568;2024-02-26T11:38:06;85328.94;;;10.20;56.19
41312;BME280;27061;41.648;24.568;2024-02-26T11:40:38;85389.06;;;10.59;55.95
41312;BME280;27061;41.648;24.568;2024-02-26T11:43:12;85334.44;;;10.22;54.33
41312;BME280;27061;41.648;24.568;2024-02-26T11:48:16;85356.72;;;10.49;53.15
41312;BME280;27061;41.648;24.568;2024-02-26T11:50:47;85320.84;;;10.08;54.67
41312;BME280;27061;41.648;24.568;2024-02-26T11:53:27;85228.56;;;9.56;54.11
41312;BME280;27061;41.648;24.568;2024-02-26T11:58:46;85158.06;;;8.87;54.69
41312;BME280;27061;41.648;24.568;2024-02-26T12:01:40;85398.25;;;10.82;54.86
41312;BME280;27061;41.648;24.568;2024-02-26T12:04:16;85391.50;;;10.73;54.64
41312;BME280;27061;41.648;24.568;2024-02-26T12:06:47;85322.00;;;10.21;55.28
41312;BME280;27061;41.648;24.568;2024-02-26T12:09:41;85390.03;;;10.78;52.65
41312;BME280;27061;41.648;24.568;2024-02-26T12:12:17;85313.88;;;10.11;56.19
41312;BME280;27061;41.648;24.568;2024-02-26T12:14:53;85327.03;;;10.46;53.99
41312;BME280;27061;41.648;24.568;2024-02-26T12:17:24;85392.28;;;10.70;52.96
41312;BME280;27061;41.648;24.568;2024-02-26T12:19:54;85283.72;;;9.97;54.16
41312;BME280;27061;41.648;24.568;2024-02-26T12:22:25;85324.59;;;10.30;55.52
41312;BME280;27061;41.648;24.568;2024-02-26T12:25:00;85338.84;;;10.44;54.81
41312;BME280;27061;41.648;24.568;2024-02-26T12:27:31;85362.50;;;10.70;54.58
41312;BME280;27061;41.648;24.568;2024-02-26T12:29:59;85336.56;;;10.53;53.61
41312;BME280;27061;41.648;24.568;2024-02-26T12:32:27;85391.25;;;10.85;54.30
41312;BME280;27061;41.648;24.568;2024-02-26T12:34:58;85351.84;;;10.50;55.15
41312;BME280;27061;41.648;24.568;2024-02-26T12:37:33;85240.75;;;9.69;55.84
41312;BME280;27061;41.648;24.568;2024-02-26T12:40:00;85308.50;;;10.03;53.52
41312;BME280;27061;41.648;24.568;2024-02-26T12:42:29;85338.63;;;10.19;55.75
41312;BME280;27061;41.648;24.568;2024-02-26T12:45:03;85343.66;;;10.46;55.31
41312;BME280;27061;41.648;24.568;2024-02-26T12:47:40;85406.94;;;10.97;54.43
41312;BME280;27061;41.648;24.568;2024-02-26T12:50:09;85321.75;;;10.34;54.48
41312;BME280;27061;41.648;24.568;2024-02-26T12:52:43;85332.38;;;10.21;54.43
41312;BME280;27061;41.648;24.568;2024-02-26T12:55:20;85290.88;;;9.86;54.72
41312;BME280;27061;41.648;24.568;2024-02-26T12:57:52;85375.84;;;10.61;54.75
41312;BME280;27061;41.648;24.568;2024-02-26T13:00:26;85389.34;;;10.78;54.67
41312;BME280;27061;41.648;24.568;2024-02-26T13:03:01;85397.00;;;10.75;55.24
41312;BME280;27061;41.648;24.568;2024-02-26T13:05:29;85375.56;;;10.41;56.04
41312;BME280;27061;41.648;24.568;2024-02-26T13:07:58;85373.09;;;10.26;55.06
41312;BME280;27061;41.648;24.568;2024-02-26T13:10:26;85385.38;;;10.36;54.36